Russell, North Dakota
Current Conditions -  °F | °C
As of 12:38 AM on Saturday 29 Nov 2014 (Local Time) from KMIB Reporting Station
Drizzle Drizzle  
Wind Chill:   Ceiling: 600
Heat Index: 10°   Visibility: 10mi
Dew Point:   Wind: 5mph
Humidity: 92%   Direction: 70°ENE
Pressure: 29.42"   Gusts: NA
Location:  48.6879°N, 101.011°W
Report Text: KMIB 290638Z AUTO 07004KT 10SM -DZ BKN006 BKN060 OVC085 M12/M13 A2942 RMK AO2 UPB0624E0633DZB0633 CIG 006V015
Loading
Personal Weather Stations






























Interactive Weather Map New forecast layout! Learn more

10-Day Weather Forecast

Advertisements
Track Severe Weather on mobile